createdAt,value
2022-08-01T00:00:51.788Z,25.20
2022-08-01T00:03:40.463Z,25.20
2022-08-01T00:06:29.637Z,26.00
2022-08-01T00:09:24.361Z,26.00
2022-08-01T00:12:13.494Z,27.50
2022-08-01T00:15:02.599Z,27.70
2022-08-01T00:17:52.699Z,28.70
2022-08-01T00:20:41.443Z,29.60
2022-08-01T00:23:30.294Z,31.30
2022-08-01T00:26:19.015Z,33.80
2022-08-01T00:29:11.529Z,33.30
2022-08-01T00:32:16.498Z,34.10
2022-08-01T00:35:07.462Z,34.40
2022-08-01T00:37:56.282Z,34.40
2022-08-01T00:40:45.025Z,35.10
2022-08-01T00:43:33.744Z,35.60
2022-08-01T00:46:22.468Z,36.50
2022-08-01T00:49:11.317Z,37.50
2022-08-01T00:52:02.592Z,37.30
2022-08-01T00:54:51.933Z,37.80
2022-08-01T00:58:02.622Z,40.40
2022-08-01T01:00:52.779Z,40.70
2022-08-01T01:03:58.705Z,41.90
2022-08-01T01:06:59.022Z,41.80
2022-08-01T01:09:58.825Z,43.50
2022-08-01T01:12:53.763Z,43.30
2022-08-01T01:15:45.868Z,43.80
2022-08-01T01:18:39.954Z,44.40
2022-08-01T01:21:37.561Z,45.60
2022-08-01T01:24:36.517Z,47.00
2022-08-01T01:27:37.686Z,47.20
2022-08-01T01:30:32.120Z,49.00
2022-08-01T01:33:23.124Z,49.10
2022-08-01T01:36:14.088Z,49.30
2022-08-01T01:39:03.750Z,52.60
2022-08-01T01:41:55.647Z,52.80
2022-08-01T01:44:46.993Z,52.30
2022-08-01T01:47:40.690Z,52.60
2022-08-01T01:50:30.545Z,53.40
2022-08-01T01:53:23.609Z,53.50
2022-08-01T01:56:13.876Z,52.90
2022-08-01T01:59:04.834Z,52.30
2022-08-01T02:02:05.523Z,53.00
2022-08-01T02:04:59.218Z,52.90
2022-08-01T02:07:49.193Z,52.80
2022-08-01T02:10:38.548Z,52.60
2022-08-01T02:13:27.447Z,52.30
2022-08-01T02:16:18.017Z,52.50
2022-08-01T02:19:06.786Z,52.80
2022-08-01T02:22:02.934Z,51.90
2022-08-01T02:24:56.398Z,51.40
2022-08-01T02:27:52.909Z,51.10
2022-08-01T02:30:46.314Z,51.50
2022-08-01T02:33:39.920Z,51.20
2022-08-01T02:36:33.454Z,50.90
2022-08-01T02:39:24.865Z,51.20
2022-08-01T02:42:15.504Z,51.30
2022-08-01T02:45:06.471Z,50.80
2022-08-01T02:48:00.499Z,50.40
2022-08-01T02:50:51.772Z,50.50
2022-08-01T02:53:44.696Z,50.80
2022-08-01T02:56:39.363Z,50.50
2022-08-01T02:59:30.851Z,50.50
2022-08-01T03:02:21.549Z,50.10
2022-08-01T03:05:11.402Z,50.30
2022-08-01T03:08:03.774Z,50.40
2022-08-01T03:10:54.314Z,50.20
2022-08-01T03:13:47.332Z,50.60
2022-08-01T03:16:37.772Z,50.30
2022-08-01T03:19:28.590Z,49.90
2022-08-01T03:22:18.880Z,50.00
2022-08-01T03:25:09.171Z,50.10
2022-08-01T03:28:01.616Z,50.90
2022-08-01T03:30:52.770Z,50.90
2022-08-01T03:33:41.844Z,51.30
2022-08-01T03:36:32.998Z,51.10
2022-08-01T03:39:25.023Z,51.30
2022-08-01T03:42:18.692Z,51.00
2022-08-01T03:45:13.528Z,51.10
2022-08-01T03:48:08.833Z,51.60
2022-08-01T03:51:00.418Z,53.10
2022-08-01T03:53:50.819Z,51.50
2022-08-01T03:56:40.658Z,52.50
2022-08-01T03:59:30.674Z,53.50
2022-08-01T04:02:22.726Z,53.20
2022-08-01T04:05:13.376Z,52.70
2022-08-01T04:08:03.370Z,53.10
2022-08-01T04:10:52.277Z,53.20
2022-08-01T04:13:44.347Z,53.50
2022-08-01T04:16:33.183Z,53.80
2022-08-01T04:19:21.953Z,53.40
2022-08-01T04:22:13.505Z,53.00
2022-08-01T04:25:04.826Z,53.00
2022-08-01T04:27:56.881Z,52.90
2022-08-01T04:30:48.472Z,53.30
2022-08-01T04:33:38.691Z,52.90
2022-08-01T04:36:28.252Z,53.30
2022-08-01T04:39:20.909Z,52.70
2022-08-01T04:42:10.560Z,52.60
2022-08-01T04:45:00.249Z,53.00
2022-08-01T04:47:49.439Z,54.40
2022-08-01T04:50:38.641Z,53.20
2022-08-01T04:53:27.748Z,54.30
2022-08-01T04:56:17.909Z,54.30
2022-08-01T04:59:23.699Z,54.30
2022-08-01T05:02:13.799Z,54.00
2022-08-01T05:05:02.851Z,54.30
2022-08-01T05:07:51.589Z,53.70
2022-08-01T05:10:40.304Z,54.00
2022-08-01T05:13:30.546Z,54.40
2022-08-01T05:16:19.226Z,54.40
2022-08-01T05:19:09.252Z,54.70
2022-08-01T05:22:02.255Z,55.20
2022-08-01T05:24:51.102Z,55.60
2022-08-01T05:27:41.806Z,55.50
2022-08-01T05:30:32.330Z,55.40
2022-08-01T05:33:22.588Z,55.70
2022-08-01T05:36:11.558Z,56.00
2022-08-01T05:39:00.304Z,57.80
2022-08-01T05:41:49.067Z,58.40
2022-08-01T05:44:37.941Z,60.10
2022-08-01T05:47:28.160Z,61.80
2022-08-01T05:50:16.871Z,62.50
2022-08-01T05:53:05.596Z,64.80
2022-08-01T05:55:54.309Z,65.20
2022-08-01T05:58:44.138Z,66.90
2022-08-01T06:01:32.814Z,69.80
2022-08-01T06:04:22.952Z,71.10
2022-08-01T06:07:11.612Z,73.70
2022-08-01T06:10:00.378Z,75.50
2022-08-01T06:12:49.073Z,76.90
2022-08-01T06:15:37.816Z,78.30
2022-08-01T06:18:26.602Z,79.40
2022-08-01T06:21:16.837Z,80.50
2022-08-01T06:24:06.369Z,81.70
2022-08-01T06:26:55.002Z,82.50
2022-08-01T06:29:51.148Z,82.70
2022-08-01T06:32:42.738Z,82.40
2022-08-01T06:35:32.136Z,81.80
2022-08-01T06:38:22.483Z,81.30
2022-08-01T06:41:11.241Z,80.50
2022-08-01T06:44:03.307Z,80.00
2022-08-01T06:46:51.973Z,80.00
2022-08-01T06:49:40.673Z,80.00
2022-08-01T06:52:29.380Z,79.50
2022-08-01T06:55:20.477Z,78.70
2022-08-01T06:58:09.137Z,78.60
2022-08-01T07:00:57.898Z,78.60
2022-08-01T07:03:53.299Z,76.40
2022-08-01T07:06:43.547Z,77.00
2022-08-01T07:09:32.386Z,74.90
2022-08-01T07:12:22.466Z,74.70
2022-08-01T07:15:13.021Z,73.80
2022-08-01T07:18:04.846Z,72.00
2022-08-01T07:20:54.037Z,69.80
2022-08-01T07:23:46.028Z,67.20
2022-08-01T07:26:35.073Z,66.40
2022-08-01T07:29:26.337Z,65.00
2022-08-01T07:32:14.995Z,63.30
2022-08-01T07:35:05.026Z,62.50
2022-08-01T07:37:54.231Z,61.10
2022-08-01T07:40:42.974Z,60.60
2022-08-01T07:43:31.886Z,57.00
2022-08-01T07:46:22.096Z,57.40
2022-08-01T07:49:10.931Z,57.80
2022-08-01T07:52:13.279Z,56.10
2022-08-01T07:55:02.026Z,55.80
2022-08-01T07:57:50.768Z,55.40
2022-08-01T08:00:39.592Z,54.60
2022-08-01T08:03:29.720Z,53.60
2022-08-01T08:06:18.552Z,50.30
2022-08-01T08:09:07.241Z,52.70
2022-08-01T08:11:55.994Z,52.00
2022-08-01T08:14:45.062Z,51.10
2022-08-01T08:17:35.633Z,47.70
2022-08-01T08:20:28.233Z,48.40
2022-08-01T08:23:42.465Z,44.00
2022-08-01T08:26:32.631Z,45.60
2022-08-01T08:29:22.238Z,40.80
2022-08-01T08:32:11.848Z,39.00
2022-08-01T08:35:00.676Z,40.00
2022-08-01T08:37:56.098Z,37.20
2022-08-01T08:40:47.263Z,36.50
2022-08-01T08:43:37.222Z,32.50
2022-08-01T08:46:28.263Z,20.00
2022-08-01T08:49:20.123Z,8.40
2022-08-01T08:52:10.743Z,4.60
2022-08-01T08:55:01.574Z,1.00
2022-08-01T08:57:50.401Z,1.00
2022-08-01T09:00:39.181Z,1.00
2022-08-01T09:03:28.101Z,1.00
2022-08-01T09:06:16.948Z,1.00
2022-08-01T09:09:06.843Z,2.80
2022-08-01T09:11:58.868Z,1.00
2022-08-01T09:14:48.991Z,1.00
2022-08-01T09:17:44.127Z,3.00
2022-08-01T09:20:35.754Z,5.00
2022-08-01T09:23:34.210Z,6.10
2022-08-01T09:26:30.094Z,3.30
2022-08-01T09:29:37.214Z,3.30
2022-08-01T09:32:30.275Z,2.40
2022-08-01T09:35:31.120Z,1.00
2022-08-01T09:38:22.531Z,1.00
2022-08-01T09:41:12.515Z,1.00
2022-08-01T09:44:03.079Z,1.10
2022-08-01T09:46:55.566Z,1.00
2022-08-01T09:49:51.967Z,1.00
2022-08-01T09:52:42.030Z,1.00
2022-08-01T09:55:30.941Z,1.00
2022-08-01T09:58:20.932Z,1.00
2022-08-01T10:01:09.699Z,1.00
2022-08-01T10:04:10.703Z,1.00
2022-08-01T10:07:08.517Z,1.00
2022-08-01T10:09:57.508Z,1.00
2022-08-01T10:12:47.652Z,1.00
2022-08-01T10:15:38.205Z,1.00
2022-08-01T10:18:28.769Z,1.00
2022-08-01T10:21:57.744Z,1.00
2022-08-01T10:24:34.996Z,1.00
2022-08-01T10:27:37.793Z,1.00
2022-08-01T10:30:27.675Z,1.00
2022-08-01T10:33:52.605Z,1.00
2022-08-01T10:36:31.692Z,1.00
2022-08-01T10:39:21.746Z,1.00
2022-08-01T10:42:15.573Z,1.00
2022-08-01T10:45:06.302Z,1.00
2022-08-01T10:48:05.029Z,1.00
2022-08-01T10:50:56.268Z,1.00
2022-08-01T10:53:53.928Z,1.00
2022-08-01T10:56:46.493Z,1.00
2022-08-01T10:59:50.702Z,1.00
2022-08-01T11:03:01.683Z,1.00
2022-08-01T11:05:55.330Z,1.00
2022-08-01T11:08:52.896Z,1.00
2022-08-01T11:12:01.129Z,1.00
2022-08-01T11:15:30.178Z,1.00
2022-08-01T11:18:33.906Z,1.00
2022-08-01T11:22:06.024Z,1.00
2022-08-01T11:25:02.370Z,1.00
2022-08-01T11:28:32.307Z,1.00
2022-08-01T11:31:37.631Z,1.00
2022-08-01T11:34:57.353Z,1.00
2022-08-01T11:37:46.190Z,1.00
2022-08-01T11:40:34.867Z,1.00
2022-08-01T11:43:25.031Z,1.00
2022-08-01T11:46:14.325Z,1.00
2022-08-01T11:49:43.812Z,1.00
2022-08-01T11:52:36.351Z,1.00
2022-08-01T11:55:25.527Z,1.00
2022-08-01T11:58:29.299Z,1.00
2022-08-01T12:01:21.030Z,1.00
2022-08-01T12:04:10.790Z,1.00
2022-08-01T12:07:14.387Z,1.00
2022-08-01T12:10:06.242Z,1.00
2022-08-01T12:12:56.800Z,1.00
2022-08-01T12:15:47.607Z,1.00
2022-08-01T12:18:41.614Z,1.00
2022-08-01T12:21:30.313Z,1.00
2022-08-01T12:24:24.957Z,1.00
2022-08-01T12:27:25.402Z,1.00
2022-08-01T12:30:16.294Z,1.00
2022-08-01T12:33:08.551Z,1.00
2022-08-01T12:35:58.719Z,1.00
2022-08-01T12:38:54.348Z,1.00
2022-08-01T12:41:45.692Z,1.00
2022-08-01T12:44:34.894Z,1.00
2022-08-01T12:47:24.004Z,1.00
2022-08-01T12:50:17.959Z,1.00
2022-08-01T12:53:07.342Z,1.00
2022-08-01T12:55:58.610Z,1.00
2022-08-01T12:58:48.429Z,1.00
2022-08-01T13:01:37.349Z,1.00
2022-08-01T13:04:26.284Z,1.00
2022-08-01T13:07:16.411Z,1.00
2022-08-01T13:10:05.769Z,1.00
2022-08-01T13:12:56.307Z,1.00
2022-08-01T13:15:46.902Z,1.00
2022-08-01T13:18:36.567Z,1.00
2022-08-01T13:21:27.008Z,1.00
2022-08-01T13:24:17.379Z,1.00
2022-08-01T13:27:06.853Z,1.00
2022-08-01T13:29:55.560Z,1.00
2022-08-01T13:32:45.292Z,1.00
2022-08-01T13:35:34.085Z,1.00
2022-08-01T13:38:43.222Z,1.00
2022-08-01T13:41:36.110Z,1.00
2022-08-01T13:44:24.794Z,1.00
2022-08-01T13:47:15.467Z,1.00
2022-08-01T13:50:05.213Z,1.00
2022-08-01T13:52:54.047Z,1.00
2022-08-01T13:55:42.753Z,1.00
2022-08-01T13:58:32.934Z,1.00
2022-08-01T14:01:21.803Z,1.00
2022-08-01T14:04:11.041Z,1.00
2022-08-01T14:07:02.929Z,1.00
2022-08-01T14:10:18.141Z,1.00
2022-08-01T14:13:03.265Z,1.00
2022-08-01T14:15:56.916Z,1.00
2022-08-01T14:18:46.014Z,1.00
2022-08-01T14:21:35.951Z,1.00
2022-08-01T14:24:24.912Z,1.00
2022-08-01T14:27:16.522Z,1.00
2022-08-01T14:30:06.309Z,1.00
2022-08-01T14:32:56.594Z,1.00
2022-08-01T14:36:03.426Z,1.00
2022-08-01T14:38:54.152Z,1.00
2022-08-01T14:41:49.203Z,1.00
2022-08-01T14:44:37.903Z,1.00
2022-08-01T14:47:34.935Z,1.00
2022-08-01T14:50:27.763Z,1.00
2022-08-01T14:53:16.447Z,1.00
2022-08-01T14:56:06.011Z,1.00
2022-08-01T14:58:54.963Z,1.00
2022-08-01T15:01:43.742Z,1.00
2022-08-01T15:04:32.475Z,1.00
2022-08-01T15:07:22.624Z,1.00
2022-08-01T15:10:11.945Z,1.00
2022-08-01T15:13:02.604Z,1.00
2022-08-01T15:15:51.352Z,1.00
2022-08-01T15:18:40.074Z,1.00
2022-08-01T15:21:41.323Z,1.00
2022-08-01T15:24:32.174Z,1.00
2022-08-01T15:27:22.138Z,1.00
2022-08-01T15:30:11.292Z,1.00
2022-08-01T15:33:00.159Z,1.00
2022-08-01T15:35:48.884Z,1.00
2022-08-01T15:38:41.637Z,1.00
2022-08-01T15:41:31.755Z,1.00
2022-08-01T15:44:21.137Z,1.00
2022-08-01T15:47:10.652Z,1.00
2022-08-01T15:50:02.386Z,1.00
2022-08-01T15:52:51.130Z,1.00
2022-08-01T15:55:40.517Z,1.00
2022-08-01T15:58:30.651Z,1.00
2022-08-01T16:01:19.606Z,1.00
2022-08-01T16:04:09.329Z,1.00
2022-08-01T16:06:58.102Z,1.00
2022-08-01T16:09:46.877Z,1.00
2022-08-01T16:12:35.616Z,1.00
2022-08-01T16:15:36.355Z,1.00
2022-08-01T16:18:25.914Z,1.00
2022-08-01T16:21:14.664Z,1.00
2022-08-01T16:24:03.351Z,1.00
2022-08-01T16:26:52.216Z,1.00
2022-08-01T16:29:42.222Z,1.00
2022-08-01T16:32:39.684Z,1.00
2022-08-01T16:35:36.039Z,1.00
2022-08-01T16:38:25.443Z,1.00
2022-08-01T16:41:20.004Z,1.00
2022-08-01T16:44:09.266Z,1.00
2022-08-01T16:46:58.004Z,1.00
2022-08-01T16:49:48.104Z,1.00
2022-08-01T16:52:41.963Z,1.00
2022-08-01T16:55:49.391Z,1.00
2022-08-01T16:58:39.425Z,1.00
2022-08-01T17:01:59.279Z,1.00
2022-08-01T17:04:37.276Z,1.00
2022-08-01T17:07:27.819Z,1.00
2022-08-01T17:10:17.197Z,1.00
2022-08-01T17:13:06.056Z,1.00
2022-08-01T17:15:54.746Z,1.00
2022-08-01T17:18:43.466Z,1.00
2022-08-01T17:21:32.183Z,1.00
2022-08-01T17:24:22.291Z,1.00
2022-08-01T17:27:13.363Z,1.00
2022-08-01T17:30:02.549Z,1.00
2022-08-01T17:32:51.290Z,1.00
2022-08-01T17:35:39.990Z,1.00
2022-08-01T17:38:28.700Z,1.00
2022-08-01T17:41:18.829Z,1.00
2022-08-01T17:44:08.054Z,1.00
2022-08-01T17:46:56.707Z,1.00
2022-08-01T17:49:54.910Z,1.00
2022-08-01T17:52:44.042Z,1.00
2022-08-01T17:55:56.116Z,1.00
2022-08-01T17:58:51.159Z,1.00
2022-08-01T18:01:45.347Z,1.00
2022-08-01T18:04:34.730Z,1.00
2022-08-01T18:08:01.343Z,1.00
2022-08-01T18:10:40.033Z,1.00
2022-08-01T18:13:29.249Z,1.00
2022-08-01T18:16:20.014Z,1.00
2022-08-01T18:19:08.774Z,1.00
2022-08-01T18:21:57.938Z,1.00
2022-08-01T18:24:46.710Z,1.00
2022-08-01T18:28:16.444Z,1.00
2022-08-01T18:30:44.557Z,1.00
2022-08-01T18:33:34.982Z,1.00
2022-08-01T18:36:33.330Z,1.00
2022-08-01T18:39:23.211Z,1.00
2022-08-01T18:42:15.797Z,1.00
2022-08-01T18:45:04.908Z,1.00
2022-08-01T18:47:54.237Z,1.00
2022-08-01T18:50:44.352Z,1.00
2022-08-01T18:53:33.048Z,1.00
2022-08-01T18:56:21.725Z,1.00
2022-08-01T18:59:10.705Z,1.00
2022-08-01T19:01:59.431Z,1.00
2022-08-01T19:04:49.681Z,1.00
2022-08-01T19:08:04.779Z,1.00
2022-08-01T19:10:48.450Z,1.00
2022-08-01T19:13:38.523Z,1.00
2022-08-01T19:16:27.931Z,1.40
2022-08-01T19:19:27.580Z,1.90
2022-08-01T19:22:16.784Z,3.20
2022-08-01T19:25:07.667Z,4.40
2022-08-01T19:27:59.009Z,5.50
2022-08-01T19:30:53.441Z,6.50
2022-08-01T19:33:43.475Z,6.60
2022-08-01T19:36:32.549Z,7.60
2022-08-01T19:39:23.796Z,8.10
2022-08-01T19:42:14.873Z,8.50
2022-08-01T19:45:05.534Z,9.40
2022-08-01T19:47:56.395Z,10.00
2022-08-01T19:50:48.660Z,10.90
2022-08-01T19:53:39.819Z,11.90
2022-08-01T19:56:30.709Z,12.40
2022-08-01T19:59:22.862Z,12.50
2022-08-01T20:02:11.690Z,13.50
2022-08-01T20:05:01.965Z,13.70
2022-08-01T20:07:51.692Z,14.70
2022-08-01T20:10:41.654Z,15.30
2022-08-01T20:13:36.983Z,16.10
2022-08-01T20:16:30.511Z,16.50
2022-08-01T20:19:20.562Z,17.20
2022-08-01T20:22:10.803Z,17.70
2022-08-01T20:25:01.333Z,18.30
2022-08-01T20:27:50.022Z,19.60
2022-08-01T20:30:39.457Z,21.70
2022-08-01T20:33:29.905Z,21.70
2022-08-01T20:36:24.933Z,22.10
2022-08-01T20:39:15.882Z,23.10
2022-08-01T20:42:05.741Z,24.10
2022-08-01T20:44:56.437Z,25.30
2022-08-01T20:47:45.193Z,26.80
2022-08-01T20:50:54.948Z,27.60
2022-08-01T20:53:46.588Z,27.40
2022-08-01T20:56:39.452Z,27.70
2022-08-01T20:59:55.515Z,28.20
2022-08-01T21:02:51.880Z,28.50
2022-08-01T21:05:56.020Z,29.20
2022-08-01T21:08:50.013Z,29.90
2022-08-01T21:11:44.200Z,30.60
2022-08-01T21:14:46.366Z,31.40
2022-08-01T21:17:45.017Z,31.20
2022-08-01T21:20:35.963Z,31.80
2022-08-01T21:23:33.270Z,32.00
2022-08-01T21:26:24.221Z,31.60
2022-08-01T21:29:13.550Z,31.60
2022-08-01T21:32:15.719Z,31.40
2022-08-01T21:35:15.686Z,32.00
2022-08-01T21:38:05.896Z,32.40
2022-08-01T21:40:56.856Z,33.10
2022-08-01T21:43:49.193Z,33.40
2022-08-01T21:46:38.052Z,33.90
2022-08-01T21:49:26.848Z,34.20
2022-08-01T21:52:21.772Z,34.40
2022-08-01T21:55:34.834Z,35.00
2022-08-01T21:58:33.739Z,35.40
2022-08-01T22:01:31.620Z,36.10
2022-08-01T22:04:25.092Z,36.80
2022-08-01T22:07:15.734Z,38.30
2022-08-01T22:10:06.981Z,39.60
2022-08-01T22:12:55.767Z,41.30
2022-08-01T22:15:46.002Z,42.30
2022-08-01T22:18:36.923Z,42.60
2022-08-01T22:21:28.482Z,43.20
2022-08-01T22:24:17.575Z,44.00
2022-08-01T22:27:23.581Z,44.10
2022-08-01T22:30:33.467Z,44.80
2022-08-01T22:33:24.153Z,45.60
2022-08-01T22:36:13.567Z,47.70
2022-08-01T22:39:02.233Z,49.20
2022-08-01T22:42:01.342Z,50.30
2022-08-01T22:44:59.814Z,52.10
2022-08-01T22:48:00.901Z,52.70
2022-08-01T22:50:56.140Z,52.20
2022-08-01T22:53:56.149Z,53.50
2022-08-01T22:56:46.418Z,54.50
2022-08-01T22:59:42.533Z,55.70
2022-08-01T23:02:34.277Z,56.10
2022-08-01T23:05:25.709Z,57.60
2022-08-01T23:08:17.356Z,58.90
2022-08-01T23:11:07.822Z,60.50
2022-08-01T23:14:00.579Z,61.70
2022-08-01T23:16:55.927Z,62.00
2022-08-01T23:19:44.947Z,62.80
2022-08-01T23:22:41.691Z,62.30
2022-08-01T23:25:34.798Z,61.70
2022-08-01T23:28:24.974Z,62.00
2022-08-01T23:31:14.841Z,62.10
2022-08-01T23:34:03.546Z,63.30
2022-08-01T23:36:52.245Z,64.40
2022-08-01T23:39:41.196Z,65.00
2022-08-01T23:42:31.328Z,66.30
2022-08-01T23:45:20.020Z,67.20
2022-08-01T23:48:08.754Z,67.30
2022-08-01T23:50:57.590Z,67.00
2022-08-01T23:53:46.429Z,68.60
2022-08-01T23:56:35.929Z,69.40
2022-08-01T23:59:26.169Z,69.90
